Time;durP1;ratioP1;P1;durP2;ratioP2;P2;SDS_P1;SDS_P2;PMS_P1;PMS_P2;Temp;Humidity;BMP_temperature;BMP_pressure;BME280_temperature;BME280_humidity;BME280_pressure;Samples;Min_cycle;Max_cycle;Signal;HPM_P1;HPM_P2
2023/08/24 00:01:28;;;;;;;7.70;4.15;;;21.80;80.50;;;;;;5117574;28;20034;-75
2023/08/24 00:03:54;;;;;;;6.53;3.80;;;21.60;80.50;;;;;;5083881;28;20043;-76
2023/08/24 00:06:20;;;;;;;5.53;3.58;;;21.60;80.90;;;;;;5117480;28;20031;-76
2023/08/24 00:08:45;;;;;;;6.43;3.85;;;21.50;81.20;;;;;;5100773;28;20042;-76
2023/08/24 00:11:14;;;;;;;6.50;3.60;;;21.50;81.10;;;;;;5100495;28;20039;-76
2023/08/24 00:13:50;;;;;;;6.88;3.83;;;21.60;81.00;;;;;;5100938;28;20040;-76
2023/08/24 00:16:17;;;;;;;6.47;3.88;;;21.40;81.10;;;;;;5117271;28;20115;-76
2023/08/24 00:18:43;;;;;;;6.40;4.05;;;21.40;81.40;;;;;;5100267;28;20023;-76
2023/08/24 00:21:08;;;;;;;4.88;3.30;;;21.40;81.10;;;;;;5117146;28;20028;-76
2023/08/24 00:23:34;;;;;;;8.77;4.03;;;21.40;81.20;;;;;;5100204;28;20077;-76
2023/08/24 00:26:00;;;;;;;6.35;4.13;;;21.40;81.40;;;;;;5099897;28;20035;-76
2023/08/24 00:28:26;;;;;;;7.10;3.80;;;21.40;81.30;;;;;;5116950;28;20032;-76
2023/08/24 00:30:51;;;;;;;7.22;3.78;;;21.40;81.10;;;;;;5116867;28;20063;-77
2023/08/24 00:33:17;;;;;;;6.65;3.53;;;21.40;81.50;;;;;;5117164;28;20032;-76
2023/08/24 00:35:43;;;;;;;7.22;4.00;;;21.40;81.60;;;;;;5116769;28;20023;-76
2023/08/24 00:38:08;;;;;;;5.85;3.63;;;21.20;81.70;;;;;;5116872;28;20024;-76
2023/08/24 00:40:36;;;;;;;6.15;3.97;;;21.20;81.80;;;;;;5099982;28;20020;-77
2023/08/24 00:43:01;;;;;;;6.95;4.30;;;21.30;81.80;;;;;;5099980;28;20036;-76
2023/08/24 00:45:27;;;;;;;9.10;4.22;;;21.30;81.60;;;;;;5099826;28;20027;-76
2023/08/24 00:47:53;;;;;;;6.50;4.22;;;21.30;81.50;;;;;;5116733;28;20016;-76
2023/08/24 00:50:20;;;;;;;6.93;4.30;;;21.30;81.60;;;;;;5099878;28;20494;-76
2023/08/24 00:52:47;;;;;;;6.70;4.15;;;21.20;81.90;;;;;;5134610;28;20054;-76
2023/08/24 00:55:13;;;;;;;7.97;4.13;;;21.20;82.10;;;;;;5134592;28;20041;-76
2023/08/24 00:57:41;;;;;;;6.28;3.90;;;21.20;81.90;;;;;;5099567;28;20031;-77
2023/08/24 01:00:11;;;;;;;8.25;4.13;;;21.20;81.70;;;;;;5099856;28;20027;-76
2023/08/24 01:02:38;;;;;;;10.00;4.40;;;21.00;81.70;;;;;;5116470;28;20043;-77
2023/08/24 01:05:06;;;;;;;7.78;4.18;;;21.00;81.90;;;;;;5116449;28;20087;-76
2023/08/24 01:07:35;;;;;;;8.05;4.50;;;21.00;82.10;;;;;;5083492;28;20054;-76
2023/08/24 01:10:03;;;;;;;7.63;4.45;;;20.90;82.50;;;;;;5116373;28;20016;-75
2023/08/24 01:13:08;;;;;;;6.47;4.10;;;20.90;82.50;;;;;;5099446;28;20027;-76
2023/08/24 01:16:04;;;;;;;5.75;4.15;;;21.00;82.20;;;;;;5065796;28;20040;-76
2023/08/24 01:18:31;;;;;;;6.22;4.47;;;21.00;82.20;;;;;;5134268;28;20071;-76
2023/08/24 01:20:58;;;;;;;7.03;4.15;;;21.00;82.10;;;;;;5134158;28;20024;-76
2023/08/24 01:23:36;;;;;;;8.77;4.55;;;21.00;81.90;;;;;;5099229;28;20016;-77
2023/08/24 01:26:09;;;;;;;5.50;4.35;;;21.00;82.10;;;;;;5116128;28;20031;-76
2023/08/24 01:28:36;;;;;;;6.55;4.32;;;20.90;82.30;;;;;;5116118;28;20094;-76
2023/08/24 01:31:03;;;;;;;6.72;4.10;;;20.90;82.50;;;;;;5082335;28;20047;-76
2023/08/24 01:33:29;;;;;;;6.07;4.45;;;20.90;82.80;;;;;;5115891;28;20083;-76
2023/08/24 01:35:54;;;;;;;5.18;4.10;;;20.90;82.80;;;;;;5099087;28;20050;-76
2023/08/24 01:38:20;;;;;;;7.15;4.50;;;20.80;82.70;;;;;;5099227;28;20035;-76
2023/08/24 01:40:50;;;;;;;7.43;4.88;;;20.80;82.90;;;;;;5082350;28;20023;-76
2023/08/24 01:43:20;;;;;;;7.18;4.53;;;20.80;82.70;;;;;;5133877;28;20023;-76
2023/08/24 01:45:47;;;;;;;9.23;4.55;;;20.70;83.10;;;;;;5115950;28;20024;-76
2023/08/24 01:48:13;;;;;;;7.57;4.97;;;20.80;83.20;;;;;;5099101;28;20080;-76
2023/08/24 01:50:40;;;;;;;7.10;4.55;;;20.70;83.30;;;;;;5099023;28;20027;-76
2023/08/24 01:53:06;;;;;;;9.05;4.30;;;20.70;83.60;;;;;;5099128;28;20118;-76
2023/08/24 01:55:32;;;;;;;5.55;4.20;;;20.60;83.90;;;;;;5082169;28;20038;-76
2023/08/24 01:57:58;;;;;;;11.93;4.30;;;20.60;84.50;;;;;;5133778;28;20186;-76
2023/08/24 02:00:24;;;;;;;7.18;4.30;;;20.60;84.60;;;;;;5082144;28;20023;-76
2023/08/24 02:02:49;;;;;;;6.95;4.65;;;20.70;84.40;;;;;;5133741;28;20035;-77
2023/08/24 02:05:15;;;;;;;7.28;5.13;;;20.70;84.60;;;;;;5098865;28;20031;-76
2023/08/24 02:07:40;;;;;;;9.00;4.30;;;20.60;84.50;;;;;;5098802;28;20133;-76
2023/08/24 02:10:07;;;;;;;8.45;4.82;;;20.60;84.60;;;;;;5133632;28;20028;-77
2023/08/24 02:12:32;;;;;;;6.20;4.38;;;20.70;84.60;;;;;;5098741;28;20032;-76
2023/08/24 02:14:58;;;;;;;6.82;4.40;;;20.70;85.50;;;;;;5098950;28;20047;-76
2023/08/24 02:17:25;;;;;;;6.05;4.60;;;20.80;84.80;;;;;;5098579;28;20032;-76
2023/08/24 02:19:51;;;;;;;5.13;4.07;;;20.90;84.90;;;;;;5133584;28;20032;-76
2023/08/24 02:22:17;;;;;;;8.50;4.50;;;20.90;84.80;;;;;;5115578;28;20094;-76
2023/08/24 02:24:42;;;;;;;6.70;4.18;;;20.90;84.80;;;;;;5115681;28;20027;-76
2023/08/24 02:27:08;;;;;;;7.07;4.72;;;20.90;84.80;;;;;;5115521;28;20371;-76
2023/08/24 02:29:34;;;;;;;7.80;4.70;;;20.90;84.80;;;;;;5081840;28;20027;-76
2023/08/24 02:31:59;;;;;;;9.52;4.43;;;20.90;85.00;;;;;;5098444;28;20072;-76
2023/08/24 02:34:25;;;;;;;8.93;5.10;;;20.90;85.10;;;;;;5098465;28;20023;-76
2023/08/24 02:36:50;;;;;;;8.73;5.10;;;20.90;85.10;;;;;;5081744;28;20049;-76
2023/08/24 02:39:16;;;;;;;7.43;4.95;;;20.90;85.30;;;;;;5098536;28;20024;-76
2023/08/24 02:41:42;;;;;;;6.32;4.63;;;20.90;85.50;;;;;;5098516;28;20049;-76
2023/08/24 02:44:07;;;;;;;8.43;4.93;;;20.90;85.40;;;;;;5098548;28;20034;-77
2023/08/24 02:46:33;;;;;;;9.65;4.95;;;21.00;85.40;;;;;;5115518;28;20028;-77
2023/08/24 02:49:02;;;;;;;8.68;4.93;;;21.00;85.50;;;;;;5115307;28;20023;-76
2023/08/24 02:51:27;;;;;;;8.05;4.90;;;21.00;85.50;;;;;;5101835;28;20035;-77
2023/08/24 02:53:53;;;;;;;9.15;4.78;;;21.00;85.50;;;;;;5085227;28;20065;-76
2023/08/24 02:56:19;;;;;;;8.15;4.95;;;21.00;85.60;;;;;;5118752;28;20031;-76
2023/08/24 02:58:44;;;;;;;11.32;5.55;;;21.00;85.70;;;;;;5118942;28;20034;-76
2023/08/24 03:01:10;;;;;;;9.38;5.28;;;20.90;85.70;;;;;;5085200;28;20028;-76
2023/08/24 03:03:36;;;;;;;7.75;5.15;;;20.90;86.10;;;;;;5101951;28;20042;-76
2023/08/24 03:06:04;;;;;;;9.35;5.13;;;20.80;86.50;;;;;;5118720;28;20049;-76
2023/08/24 03:08:32;;;;;;;8.88;5.40;;;20.80;86.80;;;;;;5118632;28;20199;-77
2023/08/24 03:10:58;;;;;;;10.20;4.93;;;20.80;87.90;;;;;;5118590;28;20019;-76
2023/08/24 03:13:24;;;;;;;7.85;5.35;;;20.80;87.30;;;;;;5101760;28;20023;-76
2023/08/24 03:15:51;;;;;;;11.57;6.30;;;20.80;87.60;;;;;;5118348;28;20019;-76
2023/08/24 03:18:17;;;;;;;9.45;6.10;;;20.80;87.90;;;;;;5101851;28;20024;-76
2023/08/24 03:20:48;;;;;;;13.52;6.90;;;20.70;88.00;;;;;;5118504;28;20497;-76
2023/08/24 03:23:14;;;;;;;11.63;7.40;;;20.70;88.70;;;;;;5101456;28;20026;-75
2023/08/24 03:25:41;;;;;;;13.40;7.20;;;20.50;89.40;;;;;;5118282;28;20016;-76
2023/08/24 03:28:08;;;;;;;10.35;6.68;;;20.40;90.00;;;;;;5101389;28;20031;-76
2023/08/24 03:30:39;;;;;;;8.90;6.10;;;20.20;90.20;;;;;;5117953;28;20055;-76
2023/08/24 03:33:05;;;;;;;10.23;6.72;;;20.20;90.50;;;;;;5118057;28;20576;-76
2023/08/24 03:35:32;;;;;;;12.05;7.10;;;20.10;90.70;;;;;;5117985;28;20040;-76
2023/08/24 03:37:58;;;;;;;12.35;7.07;;;20.10;90.90;;;;;;5101213;28;20048;-76
2023/08/24 03:40:24;;;;;;;11.50;7.00;;;20.10;91.00;;;;;;5117992;28;20371;-76
2023/08/24 03:42:50;;;;;;;14.88;7.82;;;20.10;91.10;;;;;;5101117;28;20020;-76
2023/08/24 03:45:16;;;;;;;16.30;8.30;;;20.10;91.20;;;;;;5084345;28;20020;-76
2023/08/24 03:47:42;;;;;;;12.43;7.45;;;20.10;91.30;;;;;;5101105;28;20114;-77
2023/08/24 03:50:07;;;;;;;15.93;7.88;;;20.20;91.30;;;;;;5084320;28;20073;-76
2023/08/24 03:52:33;;;;;;;13.73;8.52;;;20.20;91.30;;;;;;5084147;28;20055;-76
2023/08/24 03:54:59;;;;;;;16.00;9.30;;;20.30;91.40;;;;;;5084070;28;20099;-76
2023/08/24 03:57:24;;;;;;;16.23;9.13;;;20.30;91.40;;;;;;5100754;28;20031;-76
2023/08/24 03:59:50;;;;;;;15.43;9.07;;;20.30;91.50;;;;;;5135689;28;20020;-77
2023/08/24 04:02:16;;;;;;;15.18;9.45;;;20.40;91.50;;;;;;5082910;28;20082;-76
2023/08/24 04:04:42;;;;;;;15.27;9.32;;;20.50;91.80;;;;;;5100614;28;20038;-76
2023/08/24 04:07:08;;;;;;;14.40;8.13;;;20.50;91.30;;;;;;5083870;28;20019;-76
2023/08/24 04:09:33;;;;;;;18.58;9.27;;;20.60;91.20;;;;;;5135510;28;20055;-76
2023/08/24 04:11:59;;;;;;;16.88;9.65;;;20.60;91.20;;;;;;5083784;28;20032;-76
2023/08/24 04:14:24;;;;;;;15.57;8.95;;;20.70;91.10;;;;;;5083803;28;20023;-76
2023/08/24 04:16:50;;;;;;;14.70;9.18;;;20.70;91.10;;;;;;5135336;28;20051;-76
2023/08/24 04:19:16;;;;;;;14.40;9.63;;;20.80;91.00;;;;;;5083664;28;20058;-76
2023/08/24 04:21:41;;;;;;;15.32;9.93;;;20.80;91.00;;;;;;5100225;28;20035;-77
2023/08/24 04:24:07;;;;;;;13.48;9.43;;;20.80;90.90;;;;;;5135207;28;20042;-77
2023/08/24 04:26:32;;;;;;;16.00;10.02;;;20.80;90.90;;;;;;5083571;28;20039;-76
2023/08/24 04:28:58;;;;;;;16.90;10.15;;;20.80;91.00;;;;;;5100201;28;20027;-77
2023/08/24 04:31:24;;;;;;;18.50;9.95;;;20.80;90.90;;;;;;5117005;28;20056;-76
2023/08/24 04:33:49;;;;;;;14.07;9.95;;;20.80;90.90;;;;;;5083369;28;20035;-76
2023/08/24 04:36:15;;;;;;;14.35;9.52;;;20.70;91.00;;;;;;5099962;28;20027;-76
2023/08/24 04:38:41;;;;;;;15.27;9.43;;;20.80;91.00;;;;;;5099957;28;20103;-76
2023/08/24 04:41:08;;;;;;;15.85;10.00;;;20.80;90.90;;;;;;5116828;28;20114;-76
2023/08/24 04:43:36;;;;;;;15.20;9.88;;;20.80;90.90;;;;;;5116935;28;20020;-76
2023/08/24 04:46:02;;;;;;;15.95;9.90;;;20.60;91.30;;;;;;5083628;28;20019;-76
2023/08/24 04:48:27;;;;;;;17.98;10.45;;;20.50;91.10;;;;;;5099833;28;20028;-76
2023/08/24 04:50:53;;;;;;;17.17;10.65;;;20.50;91.20;;;;;;5116783;28;20063;-76
2023/08/24 04:53:20;;;;;;;19.52;11.30;;;20.40;91.30;;;;;;5099662;28;20091;-76
2023/08/24 04:55:46;;;;;;;16.35;10.68;;;20.40;91.50;;;;;;5134508;28;20027;-76
2023/08/24 04:58:15;;;;;;;18.40;10.35;;;20.40;91.60;;;;;;5134533;28;20016;-76
2023/08/24 05:00:42;;;;;;;18.08;10.75;;;20.50;91.60;;;;;;5116369;28;20028;-76
2023/08/24 05:03:08;;;;;;;14.32;10.43;;;20.50;91.60;;;;;;5099449;28;20034;-76
2023/08/24 05:05:35;;;;;;;18.30;11.25;;;20.50;91.50;;;;;;5116402;28;20026;-76
2023/08/24 05:08:02;;;;;;;15.88;9.93;;;20.60;91.40;;;;;;5116428;28;20027;-76
2023/08/24 05:10:32;;;;;;;18.25;10.50;;;20.60;91.30;;;;;;5116310;28;20041;-77
2023/08/24 05:12:58;;;;;;;17.27;11.10;;;20.60;91.70;;;;;;5115950;28;20092;-76
2023/08/24 05:15:24;;;;;;;16.98;11.07;;;20.50;91.40;;;;;;5134292;28;20054;-76
2023/08/24 05:17:53;;;;;;;16.55;11.10;;;20.60;91.40;;;;;;5116305;28;20020;-76
2023/08/24 05:20:23;;;;;;;16.98;10.73;;;20.50;91.40;;;;;;5117518;28;20023;-77
2023/08/24 05:22:49;;;;;;;16.40;11.23;;;20.60;91.40;;;;;;5134153;28;20031;-77
2023/08/24 05:25:16;;;;;;;16.33;10.68;;;20.50;91.80;;;;;;5134117;28;20030;-76
2023/08/24 05:27:42;;;;;;;18.35;10.68;;;20.60;91.40;;;;;;5134084;28;20038;-76
2023/08/24 05:30:08;;;;;;;17.17;11.30;;;20.50;91.30;;;;;;5116003;28;20035;-76
2023/08/24 05:32:38;;;;;;;20.33;11.10;;;20.50;91.40;;;;;;5116044;28;20027;-76
2023/08/24 05:35:07;;;;;;;18.33;11.68;;;20.50;91.50;;;;;;5099707;28;20095;-76
2023/08/24 05:37:34;;;;;;;18.48;12.05;;;20.50;91.50;;;;;;5116010;28;20031;-76
2023/08/24 05:40:00;;;;;;;18.20;11.57;;;20.50;91.50;;;;;;5115929;28;20024;-76
2023/08/24 05:42:26;;;;;;;19.88;11.57;;;20.50;91.60;;;;;;5116219;28;20016;-76
2023/08/24 05:44:52;;;;;;;21.95;12.95;;;20.60;91.50;;;;;;5099133;28;20019;-76
2023/08/24 05:47:18;;;;;;;19.67;12.73;;;20.50;91.60;;;;;;5115890;28;20024;-77
2023/08/24 05:49:43;;;;;;;20.05;13.35;;;20.40;91.70;;;;;;5098840;28;20042;-76
2023/08/24 05:52:09;;;;;;;18.85;12.68;;;20.40;91.90;;;;;;5115938;28;20028;-76
2023/08/24 05:54:36;;;;;;;19.17;12.88;;;20.30;92.00;;;;;;5116009;28;20075;-76
2023/08/24 05:57:03;;;;;;;19.15;12.00;;;20.40;92.10;;;;;;5115738;28;20155;-76
2023/08/24 05:59:29;;;;;;;18.23;12.82;;;20.40;92.20;;;;;;5116036;28;20087;-77
2023/08/24 06:01:56;;;;;;;21.70;13.20;;;20.40;92.30;;;;;;5115674;28;20020;-77
2023/08/24 06:04:22;;;;;;;24.27;13.55;;;20.40;92.30;;;;;;5098912;28;20049;-76
2023/08/24 06:06:47;;;;;;;19.48;13.48;;;20.40;92.40;;;;;;5098882;28;20028;-76
2023/08/24 06:09:14;;;;;;;20.80;13.40;;;20.40;92.40;;;;;;5115775;28;20035;-77
2023/08/24 06:11:40;;;;;;;22.13;13.77;;;20.40;92.80;;;;;;5116018;28;20024;-77
2023/08/24 06:14:06;;;;;;;20.35;13.85;;;20.40;92.50;;;;;;5115702;28;20035;-76
2023/08/24 06:16:31;;;;;;;22.02;13.75;;;20.40;92.50;;;;;;5098740;28;20027;-76
2023/08/24 06:18:57;;;;;;;21.77;14.18;;;20.50;92.50;;;;;;5098692;28;20024;-77
2023/08/24 06:21:23;;;;;;;20.30;13.73;;;20.50;92.50;;;;;;5098737;28;20050;-77
2023/08/24 06:23:48;;;;;;;20.80;14.05;;;20.60;92.60;;;;;;5098675;28;20035;-77
2023/08/24 06:26:14;;;;;;;22.95;14.07;;;20.60;92.60;;;;;;5118764;28;20054;-77
2023/08/24 06:28:40;;;;;;;23.05;14.10;;;20.60;92.50;;;;;;5119548;28;20043;-77
2023/08/24 06:31:07;;;;;;;20.55;14.18;;;20.70;92.40;;;;;;5098759;28;20048;-77
2023/08/24 06:33:38;;;;;;;21.42;13.85;;;20.70;92.50;;;;;;5115835;28;20032;-77
2023/08/24 06:36:12;;;;;;;22.90;14.32;;;20.70;92.60;;;;;;5116883;28;20023;-77
2023/08/24 06:38:37;;;;;;;23.92;14.50;;;20.70;92.70;;;;;;5100137;28;20020;-76
2023/08/24 06:41:03;;;;;;;20.92;14.40;;;20.70;92.70;;;;;;5116771;28;20051;-77
2023/08/24 06:43:29;;;;;;;25.05;14.93;;;20.70;92.70;;;;;;5098955;28;20024;-77
2023/08/24 06:45:55;;;;;;;20.60;14.65;;;20.80;92.60;;;;;;5082139;28;20032;-77
2023/08/24 06:48:21;;;;;;;22.55;14.35;;;20.80;92.40;;;;;;5098714;28;20020;-77
2023/08/24 06:50:46;;;;;;;20.52;13.75;;;20.90;92.30;;;;;;5082066;28;20032;-77
2023/08/24 06:53:12;;;;;;;23.23;14.52;;;20.90;92.30;;;;;;5098727;28;20048;-76
2023/08/24 06:55:37;;;;;;;21.65;13.75;;;20.90;92.10;;;;;;5115471;28;20039;-76
2023/08/24 06:58:06;;;;;;;26.73;13.60;;;21.00;91.70;;;;;;5098608;28;20040;-77
2023/08/24 07:00:32;;;;;;;22.58;14.15;;;21.00;91.70;;;;;;5115471;28;20043;-77
2023/08/24 07:02:58;;;;;;;21.75;14.43;;;21.00;91.60;;;;;;5115380;28;20079;-77
2023/08/24 07:05:23;;;;;;;21.23;13.82;;;21.00;91.60;;;;;;5098634;28;20031;-77
2023/08/24 07:07:56;;;;;;;21.50;14.50;;;21.10;91.60;;;;;;5098496;28;20027;-77
2023/08/24 07:10:22;;;;;;;19.77;13.75;;;21.20;91.50;;;;;;5098843;28;20024;-76
2023/08/24 07:12:47;;;;;;;20.60;13.63;;;21.20;91.40;;;;;;5116194;28;20032;-77
2023/08/24 07:15:14;;;;;;;20.75;13.32;;;21.30;91.30;;;;;;5081787;28;20070;-76
2023/08/24 07:17:40;;;;;;;20.73;14.55;;;21.30;91.20;;;;;;5116122;28;20028;-77
2023/08/24 07:20:08;;;;;;;19.65;13.73;;;21.30;91.20;;;;;;5115109;28;20030;-77
2023/08/24 07:22:34;;;;;;;19.98;14.05;;;21.40;91.20;;;;;;5098290;28;20038;-77
2023/08/24 07:25:01;;;;;;;21.10;14.05;;;21.50;91.20;;;;;;5114894;28;20032;-77
2023/08/24 07:27:28;;;;;;;21.92;14.10;;;21.60;91.10;;;;;;5115007;28;20032;-77
2023/08/24 07:29:54;;;;;;;20.00;14.77;;;21.60;90.90;;;;;;5098314;28;20039;-76
2023/08/24 07:32:19;;;;;;;18.48;14.18;;;21.70;90.80;;;;;;5114687;28;20048;-77
2023/08/24 07:34:45;;;;;;;20.05;14.10;;;21.70;90.50;;;;;;5114556;28;20558;-77
2023/08/24 07:37:10;;;;;;;18.92;14.10;;;21.70;90.50;;;;;;5097408;28;20047;-77
2023/08/24 07:39:38;;;;;;;21.88;14.23;;;21.80;90.60;;;;;;5115647;28;20028;-76
2023/08/24 07:42:04;;;;;;;20.45;14.77;;;21.90;90.50;;;;;;5114571;28;20030;-77
2023/08/24 07:44:30;;;;;;;23.02;15.40;;;21.90;90.50;;;;;;5097750;28;20044;-77
2023/08/24 07:46:56;;;;;;;21.23;14.63;;;22.00;90.30;;;;;;5081089;28;20016;-77
2023/08/24 07:49:21;;;;;;;21.85;15.40;;;22.00;90.30;;;;;;5114482;28;20490;-77
2023/08/24 07:51:47;;;;;;;24.55;15.48;;;22.10;90.10;;;;;;5114721;28;20034;-77
2023/08/24 07:54:13;;;;;;;23.05;15.73;;;22.20;90.30;;;;;;5080916;28;20016;-77
2023/08/24 07:56:38;;;;;;;20.42;14.48;;;22.30;90.30;;;;;;5097444;28;20429;-77
2023/08/24 07:59:04;;;;;;;21.65;14.35;;;22.40;90.10;;;;;;5114227;28;20090;-78
2023/08/24 08:01:30;;;;;;;22.40;14.55;;;22.40;90.00;;;;;;5097510;28;20016;-77
2023/08/24 08:03:56;;;;;;;23.88;15.02;;;22.50;89.40;;;;;;5097447;28;20024;-77
2023/08/24 08:06:21;;;;;;;18.23;13.25;;;22.60;88.50;;;;;;5097484;28;20035;-77
2023/08/24 08:08:50;;;;;;;19.90;13.50;;;22.50;88.40;;;;;;5080550;28;20115;-77
2023/08/24 08:11:15;;;;;;;19.73;13.48;;;22.50;89.00;;;;;;5115064;28;20020;-77
2023/08/24 08:13:41;;;;;;;23.05;14.70;;;22.60;89.00;;;;;;5097230;28;20039;-77
2023/08/24 08:16:07;;;;;;;20.75;15.10;;;22.60;88.80;;;;;;5080315;28;20364;-77
2023/08/24 08:18:34;;;;;;;18.83;13.52;;;22.60;88.50;;;;;;5114008;28;20036;-77
2023/08/24 08:21:00;;;;;;;21.80;14.25;;;22.70;88.70;;;;;;5097203;28;20074;-77
2023/08/24 08:23:26;;;;;;;17.33;13.10;;;22.80;88.80;;;;;;5113854;28;20024;-76
2023/08/24 08:25:52;;;;;;;18.02;13.38;;;22.90;89.20;;;;;;5096818;28;20031;-77
2023/08/24 08:28:18;;;;;;;20.20;12.80;;;23.00;89.10;;;;;;5096850;28;20126;-77
2023/08/24 08:30:44;;;;;;;17.60;12.73;;;23.10;88.80;;;;;;5099381;28;20115;-77
2023/08/24 08:33:10;;;;;;;20.20;12.73;;;23.10;88.90;;;;;;5117041;28;20053;-76
2023/08/24 08:35:38;;;;;;;19.17;12.52;;;23.20;88.20;;;;;;5099856;28;20020;-77
2023/08/24 08:38:06;;;;;;;18.17;13.15;;;23.20;88.10;;;;;;5116893;28;20493;-77
2023/08/24 08:40:32;;;;;;;19.15;13.18;;;23.30;87.90;;;;;;5116883;28;20023;-77
2023/08/24 08:42:58;;;;;;;21.52;13.00;;;23.30;87.00;;;;;;5117059;28;20032;-77
2023/08/24 08:45:28;;;;;;;18.05;12.02;;;23.40;86.70;;;;;;5116937;28;20028;-77
2023/08/24 08:48:01;;;;;;;15.70;11.35;;;23.40;86.80;;;;;;5099309;28;20031;-77
2023/08/24 08:50:27;;;;;;;15.93;12.23;;;23.50;86.70;;;;;;5099964;28;20027;-77
2023/08/24 08:52:53;;;;;;;14.93;11.55;;;23.60;86.70;;;;;;5116805;28;20023;-77
2023/08/24 08:55:19;;;;;;;15.20;11.00;;;23.60;86.40;;;;;;5116800;28;20054;-77
2023/08/24 08:57:49;;;;;;;21.52;12.50;;;23.70;86.80;;;;;;5116627;28;20020;-77
2023/08/24 09:00:18;;;;;;;15.43;11.45;;;23.70;86.50;;;;;;5116885;28;20028;-77
2023/08/24 09:02:45;;;;;;;16.73;11.40;;;23.80;86.70;;;;;;5099540;28;20027;-77
2023/08/24 09:05:12;;;;;;;15.70;10.88;;;23.90;87.10;;;;;;5099501;28;20028;-77
2023/08/24 09:07:41;;;;;;;15.90;11.65;;;23.90;86.70;;;;;;5099627;28;20027;-77
2023/08/24 09:10:08;;;;;;;17.08;11.23;;;24.00;87.30;;;;;;5116448;28;20019;-77
2023/08/24 09:12:34;;;;;;;18.35;10.45;;;24.10;85.90;;;;;;5116312;28;20032;-77
2023/08/24 09:15:04;;;;;;;16.23;10.38;;;24.10;85.60;;;;;;5116508;28;20034;-77
2023/08/24 09:17:29;;;;;;;15.80;9.32;;;24.10;84.80;;;;;;5099368;28;20091;-77
2023/08/24 09:19:58;;;;;;;14.00;9.48;;;24.10;85.30;;;;;;5099336;28;20073;-77
2023/08/24 09:22:24;;;;;;;14.73;10.32;;;24.10;85.50;;;;;;5116299;28;20057;-77
2023/08/24 09:24:50;;;;;;;15.93;10.27;;;24.20;85.80;;;;;;5099393;28;20024;-77
2023/08/24 09:27:20;;;;;;;18.02;10.52;;;24.20;85.80;;;;;;5134157;28;20028;-77
2023/08/24 09:29:51;;;;;;;14.00;9.50;;;24.30;86.80;;;;;;5116138;28;20028;-77
2023/08/24 09:32:44;;;;;;;17.05;10.48;;;24.30;86.20;;;;;;5116183;28;20054;-77
2023/08/24 09:35:10;;;;;;;17.67;9.48;;;24.40;85.80;;;;;;5131104;28;20032;-77
2023/08/24 09:37:36;;;;;;;11.80;8.57;;;24.50;86.00;;;;;;5133967;28;20083;-77
2023/08/24 09:40:11;;;;;;;15.60;10.27;;;24.50;85.90;;;;;;5099208;28;20034;-77
2023/08/24 09:42:39;;;;;;;13.80;9.98;;;24.60;85.90;;;;;;5134125;28;20011;-77
2023/08/24 09:45:09;;;;;;;15.48;10.38;;;24.70;85.70;;;;;;5133928;28;20391;-77
2023/08/24 09:47:36;;;;;;;14.70;10.10;;;24.70;85.80;;;;;;5133934;28;20031;-77
2023/08/24 09:50:02;;;;;;;15.95;9.75;;;24.80;86.30;;;;;;5133898;28;20131;-77
2023/08/24 09:52:32;;;;;;;14.65;9.57;;;24.80;84.30;;;;;;5133897;28;20020;-77
2023/08/24 09:55:07;;;;;;;16.20;10.02;;;24.90;85.30;;;;;;5133915;28;20023;-77
2023/08/24 09:57:40;;;;;;;18.17;9.73;;;24.90;85.00;;;;;;5116470;28;20028;-77
2023/08/24 10:00:10;;;;;;;14.18;9.50;;;25.00;85.10;;;;;;5119317;28;20110;-77
2023/08/24 10:02:57;;;;;;;13.52;9.68;;;25.00;85.40;;;;;;5120197;28;20016;-77
2023/08/24 10:05:24;;;;;;;15.20;10.27;;;25.10;85.00;;;;;;5137972;28;20046;-77
2023/08/24 10:07:56;;;;;;;14.40;10.10;;;25.00;85.00;;;;;;5119902;28;20173;-77
2023/08/24 10:10:25;;;;;;;18.35;10.50;;;25.10;84.90;;;;;;5119825;28;20027;-78
2023/08/24 10:12:56;;;;;;;14.73;10.38;;;25.10;85.00;;;;;;5119822;28;20051;-77
2023/08/24 10:15:23;;;;;;;12.27;10.37;;;25.00;84.60;;;;;;5119835;28;20034;-77
2023/08/24 10:17:50;;;;;;;17.63;9.52;;;25.00;84.40;;;;;;5119856;28;20024;-77
2023/08/24 10:20:19;;;;;;;12.77;9.40;;;25.00;85.20;;;;;;5119604;28;20020;-77
2023/08/24 10:22:47;;;;;;;14.07;8.77;;;25.10;85.30;;;;;;5119443;28;20489;-77
2023/08/24 10:25:13;;;;;;;17.48;9.88;;;25.10;84.80;;;;;;5102565;28;20016;-77
2023/08/24 10:27:43;;;;;;;14.98;9.02;;;25.10;85.70;;;;;;5137523;28;20060;-77
2023/08/24 10:30:11;;;;;;;13.95;9.10;;;25.20;84.80;;;;;;5103077;28;20020;-77
2023/08/24 10:32:37;;;;;;;13.05;9.35;;;25.10;84.90;;;;;;5119231;28;20047;-77
2023/08/24 10:35:04;;;;;;;13.95;10.25;;;25.10;85.50;;;;;;5102487;28;20027;-77
2023/08/24 10:37:30;;;;;;;16.70;11.68;;;25.20;86.10;;;;;;5102263;28;20031;-77
2023/08/24 10:39:56;;;;;;;18.25;10.57;;;25.20;86.30;;;;;;5137313;28;20064;-77
2023/08/24 10:42:22;;;;;;;14.93;9.25;;;25.20;85.70;;;;;;5102205;28;20023;-77
2023/08/24 10:44:49;;;;;;;18.42;9.27;;;25.20;84.30;;;;;;5102119;28;20031;-77
2023/08/24 10:47:24;;;;;;;12.18;8.55;;;25.20;84.00;;;;;;5102361;28;20024;-77
2023/08/24 10:49:55;;;;;;;13.82;8.27;;;25.20;84.40;;;;;;5119186;28;20096;-77
2023/08/24 10:52:33;;;;;;;14.63;9.02;;;25.20;84.90;;;;;;5137089;28;20031;-77
2023/08/24 10:55:01;;;;;;;13.15;8.60;;;25.20;85.30;;;;;;5102335;28;20114;-77
2023/08/24 10:57:38;;;;;;;15.15;10.45;;;25.20;85.70;;;;;;5101782;28;20020;-77
2023/08/24 11:00:13;;;;;;;13.95;9.50;;;25.20;85.30;;;;;;5102074;28;20028;-76
2023/08/24 11:02:43;;;;;;;14.20;9.23;;;25.10;85.70;;;;;;5118833;28;20399;-77
2023/08/24 11:05:32;;;;;;;17.38;9.35;;;25.10;85.40;;;;;;5118696;28;20438;-77
2023/08/24 11:08:03;;;;;;;13.77;10.27;;;25.10;85.30;;;;;;5118732;28;20023;-77
2023/08/24 11:10:40;;;;;;;13.55;10.27;;;25.00;86.00;;;;;;5136087;28;20019;-77
2023/08/24 11:13:08;;;;;;;17.58;10.30;;;25.00;86.00;;;;;;5118505;28;20032;-77
2023/08/24 11:15:39;;;;;;;12.55;9.20;;;25.00;86.30;;;;;;5136625;28;20024;-77
2023/08/24 11:18:11;;;;;;;12.27;9.18;;;25.00;86.40;;;;;;5101652;28;20038;-77
2023/08/24 11:20:37;;;;;;;13.77;8.98;;;24.90;86.50;;;;;;5118408;28;20023;-77
2023/08/24 11:23:03;;;;;;;12.88;7.65;;;24.90;86.00;;;;;;5118406;28;20028;-77
2023/08/24 11:25:29;;;;;;;8.38;7.45;;;25.00;85.60;;;;;;5136373;28;20079;-77
2023/08/24 11:27:58;;;;;;;10.30;6.80;;;25.00;85.40;;;;;;5118247;28;20024;-77
2023/08/24 11:30:24;;;;;;;8.10;6.43;;;25.00;84.10;;;;;;5101635;28;20057;-79
2023/08/24 11:32:53;;;;;;;13.63;7.43;;;25.10;84.40;;;;;;5101355;28;20020;-77
2023/08/24 11:35:20;;;;;;;11.90;7.95;;;25.20;84.40;;;;;;5136165;28;20020;-77
2023/08/24 11:37:54;;;;;;;11.45;8.80;;;25.20;83.50;;;;;;5084860;28;20023;-79
2023/08/24 11:40:26;;;;;;;12.98;9.25;;;25.30;83.10;;;;;;5118169;28;20015;-79
2023/08/24 11:42:54;;;;;;;12.27;9.17;;;25.30;83.00;;;;;;5119026;28;20026;-78
2023/08/24 11:45:19;;;;;;;15.98;9.13;;;25.30;83.90;;;;;;5100997;28;20034;-78
2023/08/24 11:47:45;;;;;;;12.05;8.07;;;25.30;83.20;;;;;;5118004;28;20020;-77
2023/08/24 11:50:11;;;;;;;10.75;8.00;;;25.30;83.10;;;;;;5084163;28;20034;-77
2023/08/24 11:52:41;;;;;;;13.82;7.13;;;25.30;83.70;;;;;;5084318;28;20027;-78
2023/08/24 11:55:08;;;;;;;11.25;7.13;;;25.30;83.10;;;;;;5117675;28;20042;-78
2023/08/24 11:57:35;;;;;;;14.18;7.97;;;25.30;84.30;;;;;;5084371;28;20095;-78
2023/08/24 12:00:01;;;;;;;11.90;7.05;;;25.30;84.60;;;;;;5135633;28;20019;-79
2023/08/24 12:02:28;;;;;;;9.75;6.53;;;25.40;84.60;;;;;;5100806;28;20019;-78
2023/08/24 12:04:57;;;;;;;10.45;6.75;;;25.40;84.00;;;;;;5135651;28;20019;-79
2023/08/24 12:07:23;;;;;;;12.20;6.63;;;25.40;83.30;;;;;;5135609;28;20061;-78
2023/08/24 12:09:52;;;;;;;8.43;6.60;;;25.40;84.00;;;;;;5135588;28;20490;-79
2023/08/24 12:12:20;;;;;;;12.57;6.65;;;25.40;84.30;;;;;;5118128;28;20026;-78
2023/08/24 12:14:47;;;;;;;9.00;6.00;;;25.40;84.70;;;;;;5117420;28;20049;-78
2023/08/24 12:17:13;;;;;;;9.70;6.30;;;25.30;83.00;;;;;;5100438;28;20031;-78
2023/08/24 12:19:55;;;;;;;7.13;5.57;;;25.30;84.60;;;;;;5083927;28;20367;-78
2023/08/24 12:22:21;;;;;;;15.13;7.00;;;25.20;83.60;;;;;;5116464;28;20039;-79
2023/08/24 12:24:47;;;;;;;11.52;7.03;;;25.20;84.60;;;;;;5117119;28;20118;-78
2023/08/24 12:27:20;;;;;;;9.80;5.95;;;25.30;84.50;;;;;;5117207;28;20057;-78
2023/08/24 12:29:47;;;;;;;11.00;6.18;;;25.30;84.10;;;;;;5117098;28;20020;-79
2023/08/24 12:32:15;;;;;;;8.85;5.80;;;25.30;84.10;;;;;;5099964;28;20047;-77
2023/08/24 12:34:40;;;;;;;9.43;6.30;;;25.30;84.10;;;;;;5135010;28;20024;-77
2023/08/24 12:37:06;;;;;;;10.18;6.95;;;25.40;84.00;;;;;;5100017;28;20030;-77